Time;durP1;ratioP1;P1;durP2;ratioP2;P2;SDS_P1;SDS_P2;PMS_P1;PMS_P2;Temp;Humidity;BMP_temperature;BMP_pressure;BME280_temperature;BME280_humidity;BME280_pressure;Samples;Min_cycle;Max_cycle;Signal;HPM_P1;HPM_P2
2022/05/23 00:01:27;;;;;;;2.13;1.80;;;;;;;;;;4995200;28;20109;-71
2022/05/23 00:03:52;;;;;;;4.32;2.78;;;;;;;;;;4991426;28;20376;-75
2022/05/23 00:06:19;;;;;;;3.28;2.50;;;;;;;;;;5000498;28;20041;-71
2022/05/23 00:08:45;;;;;;;3.17;1.90;;;;;;;;;;4995807;28;20038;-72
2022/05/23 00:11:11;;;;;;;2.35;1.98;;;;;;;;;;4997628;28;20068;-72
2022/05/23 00:13:36;;;;;;;2.95;2.45;;;;;;;;;;5000854;28;20021;-72
2022/05/23 00:16:05;;;;;;;2.50;2.13;;;;;;;;;;4999531;28;20041;-71
2022/05/23 00:18:31;;;;;;;3.95;2.35;;;;;;;;;;5006803;28;20022;-72
2022/05/23 00:20:56;;;;;;;4.30;2.85;;;;;;;;;;5011019;28;20036;-71
2022/05/23 00:23:24;;;;;;;5.03;2.45;;;;;;;;;;5006913;28;20036;-71
2022/05/23 00:25:49;;;;;;;3.65;2.50;;;;;;;;;;5003198;28;20592;-70
2022/05/23 00:28:15;;;;;;;3.25;2.38;;;;;;;;;;4997657;28;20034;-76
2022/05/23 00:30:40;;;;;;;4.00;2.33;;;;;;;;;;4998916;28;20056;-71
2022/05/23 00:35:52;;;;;;;3.50;2.25;;;;;;;;;;4999513;28;20429;-72
2022/05/23 00:38:17;;;;;;;3.28;2.08;;;;;;;;;;5007130;28;20082;-73
2022/05/23 00:43:13;;;;;;;3.20;1.80;;;;;;;;;;5001820;28;20033;-71
2022/05/23 00:43:38;;;;;;;4.45;2.30;;;;;;;;;;5009179;28;20037;-73
2022/05/23 00:46:04;;;;;;;1.70;1.60;;;;;;;;;;5001506;28;20042;-73
2022/05/23 00:48:30;;;;;;;1.70;1.60;;;;;;;;;;4998813;28;20037;-73
2022/05/23 00:50:57;;;;;;;2.40;1.52;;;;;;;;;;5010745;28;20085;-75
2022/05/23 00:53:31;;;;;;;2.00;1.80;;;;;;;;;;5003466;28;20090;-75
2022/05/23 00:55:57;;;;;;;2.67;1.83;;;;;;;;;;4996862;28;20048;-71
2022/05/23 00:58:26;;;;;;;2.50;1.67;;;;;;;;;;4985084;28;20033;-77
2022/05/23 01:00:52;;;;;;;2.10;1.67;;;;;;;;;;5001068;28;20036;-72
2022/05/23 01:03:19;;;;;;;2.13;1.60;;;;;;;;;;4997305;28;20026;-72
2022/05/23 01:05:45;;;;;;;2.80;1.90;;;;;;;;;;4996204;28;20038;-76
2022/05/23 01:08:13;;;;;;;2.00;1.80;;;;;;;;;;4995799;28;20033;-74
2022/05/23 01:10:39;;;;;;;2.58;2.08;;;;;;;;;;5008881;28;20076;-71
2022/05/23 01:13:05;;;;;;;4.15;1.75;;;;;;;;;;4994368;28;20025;-72
2022/05/23 01:15:33;;;;;;;2.47;1.75;;;;;;;;;;4971843;28;20188;-75
2022/05/23 01:17:58;;;;;;;2.47;1.90;;;;;;;;;;4985662;28;20151;-71
2022/05/23 01:20:24;;;;;;;2.15;1.95;;;;;;;;;;4996749;28;20116;-72
2022/05/23 01:22:49;;;;;;;2.08;1.75;;;;;;;;;;5002531;28;20362;-73
2022/05/23 01:25:17;;;;;;;3.03;2.33;;;;;;;;;;5011880;28;20113;-72
2022/05/23 01:27:43;;;;;;;1.90;1.60;;;;;;;;;;5012628;28;20362;-72
2022/05/23 01:30:09;;;;;;;1.60;1.50;;;;;;;;;;5006486;28;20034;-78
2022/05/23 01:32:34;;;;;;;2.13;1.88;;;;;;;;;;5002607;28;20036;-73
2022/05/23 01:35:00;;;;;;;2.33;1.90;;;;;;;;;;5005398;28;20037;-75
2022/05/23 01:37:25;;;;;;;2.13;1.70;;;;;;;;;;5005156;28;20095;-73
2022/05/23 01:39:51;;;;;;;2.05;1.85;;;;;;;;;;5005484;28;20026;-77
2022/05/23 01:42:16;;;;;;;2.70;2.10;;;;;;;;;;5002351;28;20044;-72
2022/05/23 01:44:41;;;;;;;2.47;1.83;;;;;;;;;;5012954;28;20044;-73
2022/05/23 01:47:10;;;;;;;2.05;1.85;;;;;;;;;;5016799;28;20353;-72
2022/05/23 01:49:36;;;;;;;1.77;1.67;;;;;;;;;;5012727;28;20030;-77
2022/05/23 01:52:01;;;;;;;1.95;1.58;;;;;;;;;;5007153;28;20039;-73
2022/05/23 01:54:27;;;;;;;2.47;1.70;;;;;;;;;;5019071;28;20162;-73
2022/05/23 01:56:52;;;;;;;2.30;1.75;;;;;;;;;;5017007;28;20030;-72
2022/05/23 02:02:02;;;;;;;3.08;2.10;;;;;;;;;;5004578;28;20112;-74
2022/05/23 02:04:28;;;;;;;2.45;2.00;;;;;;;;;;5003409;28;20037;-79
2022/05/23 02:06:53;;;;;;;2.22;1.13;;;;;;;;;;5004924;28;20452;-75
2022/05/23 02:09:26;;;;;;;2.20;1.52;;;;;;;;;;5008480;28;20433;-71
2022/05/23 02:11:51;;;;;;;2.72;1.95;;;;;;;;;;5015927;28;20109;-72
2022/05/23 02:14:17;;;;;;;1.77;1.67;;;;;;;;;;5018270;28;20497;-73
2022/05/23 02:16:42;;;;;;;1.60;1.50;;;;;;;;;;5016007;28;20449;-73
2022/05/23 02:19:07;;;;;;;1.77;1.67;;;;;;;;;;5013483;28;20278;-74
2022/05/23 02:21:33;;;;;;;3.00;1.80;;;;;;;;;;5015999;28;20034;-77
2022/05/23 02:23:58;;;;;;;1.73;1.63;;;;;;;;;;5001578;28;20038;-73
2022/05/23 02:26:23;;;;;;;2.00;1.33;;;;;;;;;;5002905;28;20033;-72
2022/05/23 02:28:49;;;;;;;1.90;1.70;;;;;;;;;;4992713;28;20044;-76
2022/05/23 02:31:14;;;;;;;3.22;2.10;;;;;;;;;;5006278;28;20045;-73
2022/05/23 02:33:41;;;;;;;2.35;1.60;;;;;;;;;;5007765;28;20396;-72
2022/05/23 02:36:07;;;;;;;2.30;1.92;;;;;;;;;;5015146;28;20116;-76
2022/05/23 02:38:32;;;;;;;1.85;1.73;;;;;;;;;;5006101;28;20337;-70
2022/05/23 02:40:58;;;;;;;2.42;1.98;;;;;;;;;;5002145;28;21292;-76
2022/05/23 02:43:23;;;;;;;2.03;1.40;;;;;;;;;;5014057;28;20021;-73
2022/05/23 02:45:49;;;;;;;1.90;1.70;;;;;;;;;;5004036;28;20080;-73
2022/05/23 02:48:15;;;;;;;1.48;1.38;;;;;;;;;;5013111;28;20060;-70
2022/05/23 02:50:40;;;;;;;2.35;1.63;;;;;;;;;;5004122;28;20025;-73
2022/05/23 02:53:05;;;;;;;1.50;1.40;;;;;;;;;;4986734;28;20046;-73
2022/05/23 02:55:31;;;;;;;2.78;1.70;;;;;;;;;;4998082;28;20087;-73
2022/05/23 02:57:56;;;;;;;1.73;1.63;;;;;;;;;;5005953;28;20137;-72
2022/05/23 03:00:21;;;;;;;2.13;1.83;;;;;;;;;;5005221;28;20404;-72
2022/05/23 03:03:02;;;;;;;1.38;1.27;;;;;;;;;;4992559;28;20026;-74
2022/05/23 03:05:28;;;;;;;2.28;1.90;;;;;;;;;;4971059;28;20022;-72
2022/05/23 03:07:53;;;;;;;1.55;1.45;;;;;;;;;;4993494;28;20026;-71
2022/05/23 03:10:19;;;;;;;2.38;1.70;;;;;;;;;;5011245;28;20357;-74
2022/05/23 03:12:45;;;;;;;1.70;1.60;;;;;;;;;;5015606;28;20029;-73
2022/05/23 03:15:11;;;;;;;1.67;1.52;;;;;;;;;;5016663;28;20052;-75
2022/05/23 03:17:37;;;;;;;2.50;1.85;;;;;;;;;;5003128;28;20030;-71
2022/05/23 03:20:03;;;;;;;3.85;1.83;;;;;;;;;;5019205;28;20026;-71
2022/05/23 03:27:56;;;;;;;1.45;1.35;;;;;;;;;;5017429;28;20356;-73
2022/05/23 03:30:21;;;;;;;2.50;2.00;;;;;;;;;;5016916;28;20025;-72
2022/05/23 03:32:47;;;;;;;2.03;1.83;;;;;;;;;;5017282;28;20129;-72
2022/05/23 03:35:12;;;;;;;3.17;1.83;;;;;;;;;;5019207;28;20049;-76
2022/05/23 03:37:37;;;;;;;2.30;1.70;;;;;;;;;;5015545;28;20079;-71
2022/05/23 03:40:04;;;;;;;2.97;1.80;;;;;;;;;;5015781;28;20033;-70
2022/05/23 03:42:29;;;;;;;2.60;1.77;;;;;;;;;;5006231;28;20045;-71
2022/05/23 03:44:55;;;;;;;1.75;1.63;;;;;;;;;;5001748;28;20426;-75
2022/05/23 03:47:21;;;;;;;1.55;1.45;;;;;;;;;;4989696;28;20095;-78
2022/05/23 03:49:46;;;;;;;2.42;1.65;;;;;;;;;;5002148;28;20033;-71
2022/05/23 03:52:11;;;;;;;2.97;1.58;;;;;;;;;;5002009;28;20350;-73
2022/05/23 03:54:37;;;;;;;2.33;1.60;;;;;;;;;;5002660;28;20054;-75
2022/05/23 03:57:03;;;;;;;2.30;1.85;;;;;;;;;;5009839;28;20073;-73
2022/05/23 03:59:28;;;;;;;1.92;1.70;;;;;;;;;;5017281;28;20091;-71
2022/05/23 04:01:56;;;;;;;2.80;1.60;;;;;;;;;;5004252;28;20025;-75
2022/05/23 04:04:22;;;;;;;2.30;1.70;;;;;;;;;;5016842;28;20075;-72
2022/05/23 04:06:47;;;;;;;1.98;1.70;;;;;;;;;;4998331;28;20025;-72
2022/05/23 04:09:12;;;;;;;1.88;1.40;;;;;;;;;;4993299;28;21394;-72
2022/05/23 04:11:38;;;;;;;2.28;1.73;;;;;;;;;;4987345;28;20022;-71
2022/05/23 04:14:03;;;;;;;1.50;1.40;;;;;;;;;;4987333;28;20033;-75
2022/05/23 04:16:29;;;;;;;1.95;1.75;;;;;;;;;;4988549;28;20037;-73
2022/05/23 04:18:55;;;;;;;2.40;1.73;;;;;;;;;;4986442;28;20511;-77
2022/05/23 04:21:21;;;;;;;1.98;1.73;;;;;;;;;;4987154;28;20037;-73
2022/05/23 04:23:46;;;;;;;2.05;1.85;;;;;;;;;;4987852;28;20025;-71
2022/05/23 04:26:12;;;;;;;2.58;1.80;;;;;;;;;;4986134;28;20113;-72
2022/05/23 04:28:40;;;;;;;3.47;1.88;;;;;;;;;;4992638;28;20072;-73
2022/05/23 04:31:06;;;;;;;2.05;1.85;;;;;;;;;;5009495;28;20044;-72
2022/05/23 04:36:16;;;;;;;4.25;1.67;;;;;;;;;;5007143;28;20076;-72
2022/05/23 04:38:42;;;;;;;3.80;2.05;;;;;;;;;;5000923;28;20050;-78
2022/05/23 04:41:07;;;;;;;2.47;2.10;;;;;;;;;;4987337;28;20022;-72
2022/05/23 04:43:32;;;;;;;2.70;1.63;;;;;;;;;;4992678;28;20034;-72
2022/05/23 04:45:58;;;;;;;3.08;2.00;;;;;;;;;;4987680;28;20438;-74
2022/05/23 04:51:07;;;;;;;4.00;2.00;;;;;;;;;;5000878;28;20099;-71
2022/05/23 04:53:32;;;;;;;2.78;1.80;;;;;;;;;;4999276;28;20472;-74
2022/05/23 04:56:00;;;;;;;2.13;1.80;;;;;;;;;;5000198;28;20038;-72
2022/05/23 04:58:25;;;;;;;3.03;1.80;;;;;;;;;;5001380;28;20029;-71
2022/05/23 05:00:51;;;;;;;2.78;2.22;;;;;;;;;;5003314;28;20025;-75
2022/05/23 05:03:16;;;;;;;2.20;2.00;;;;;;;;;;5000307;28;20107;-74
2022/05/23 05:05:41;;;;;;;2.85;1.95;;;;;;;;;;5007120;28;20418;-72
2022/05/23 05:08:07;;;;;;;3.15;2.03;;;;;;;;;;4999063;28;20034;-70
2022/05/23 05:10:32;;;;;;;2.40;2.20;;;;;;;;;;5014444;28;20030;-71
2022/05/23 05:12:58;;;;;;;2.08;1.98;;;;;;;;;;5016406;28;20444;-70
2022/05/23 05:15:24;;;;;;;2.17;1.85;;;;;;;;;;5012483;28;20014;-73
2022/05/23 05:17:49;;;;;;;2.25;2.03;;;;;;;;;;5012179;28;20049;-78
2022/05/23 05:20:16;;;;;;;3.17;2.33;;;;;;;;;;5014248;28;20021;-74
2022/05/23 05:22:41;;;;;;;2.35;2.10;;;;;;;;;;5007984;28;20469;-72
2022/05/23 05:25:07;;;;;;;2.60;2.40;;;;;;;;;;4989252;28;20120;-72
2022/05/23 05:27:33;;;;;;;3.15;2.55;;;;;;;;;;5004409;28;20030;-72
2022/05/23 05:29:59;;;;;;;3.08;2.55;;;;;;;;;;5007445;28;20118;-78
2022/05/23 05:32:32;;;;;;;2.85;2.58;;;;;;;;;;5013114;28;20026;-78
2022/05/23 05:35:04;;;;;;;3.10;2.75;;;;;;;;;;5009283;28;20314;-71
2022/05/23 05:37:31;;;;;;;2.17;1.98;;;;;;;;;;5004249;28;20536;-72
2022/05/23 05:39:58;;;;;;;6.15;4.20;;;;;;;;;;5004195;28;20022;-77
2022/05/23 05:42:30;;;;;;;2.80;2.40;;;;;;;;;;5004763;28;20030;-69
2022/05/23 05:45:06;;;;;;;2.70;2.50;;;;;;;;;;5003254;28;20061;-71
2022/05/23 05:47:33;;;;;;;2.53;2.33;;;;;;;;;;5015602;28;20026;-70
2022/05/23 05:50:00;;;;;;;1.90;1.80;;;;;;;;;;5012374;28;20029;-70
2022/05/23 05:52:28;;;;;;;3.03;1.58;;;;;;;;;;5019261;28;20476;-70
2022/05/23 05:54:53;;;;;;;2.00;1.73;;;;;;;;;;5012840;28;20041;-71
2022/05/23 05:57:19;;;;;;;2.28;1.88;;;;;;;;;;5016946;28;20048;-71
2022/05/23 05:59:45;;;;;;;3.03;2.33;;;;;;;;;;5010247;28;20022;-75
2022/05/23 06:02:10;;;;;;;2.10;1.88;;;;;;;;;;5017259;28;20029;-72
2022/05/23 06:04:35;;;;;;;2.30;2.10;;;;;;;;;;5012466;28;20073;-69
2022/05/23 06:12:29;;;;;;;2.30;1.90;;;;;;;;;;4995108;28;20726;-76
2022/05/23 06:14:54;;;;;;;2.53;1.75;;;;;;;;;;4999068;28;20441;-69
2022/05/23 06:17:20;;;;;;;1.60;1.50;;;;;;;;;;5003226;28;20345;-76
2022/05/23 06:19:46;;;;;;;3.03;1.67;;;;;;;;;;5002245;28;20045;-72
2022/05/23 06:22:12;;;;;;;2.05;1.85;;;;;;;;;;5002570;28;20064;-69
2022/05/23 06:24:37;;;;;;;2.25;1.83;;;;;;;;;;5000889;28;20022;-70
2022/05/23 06:27:03;;;;;;;2.03;1.83;;;;;;;;;;5002776;28;20052;-72
2022/05/23 06:29:29;;;;;;;2.53;1.73;;;;;;;;;;5001410;28;20034;-76
2022/05/23 06:31:54;;;;;;;2.22;2.03;;;;;;;;;;4990843;28;20036;-71
2022/05/23 06:34:20;;;;;;;2.85;2.10;;;;;;;;;;4998229;28;20040;-71
2022/05/23 06:36:45;;;;;;;2.72;1.90;;;;;;;;;;4998921;28;20030;-74
2022/05/23 06:39:10;;;;;;;3.65;2.17;;;;;;;;;;4988586;28;20025;-70
2022/05/23 06:41:36;;;;;;;3.15;2.60;;;;;;;;;;5004081;28;20029;-70
2022/05/23 06:44:01;;;;;;;2.42;2.22;;;;;;;;;;5002197;28;20026;-77
2022/05/23 06:46:26;;;;;;;3.75;2.53;;;;;;;;;;5007203;28;20488;-71
2022/05/23 06:48:52;;;;;;;4.60;2.45;;;;;;;;;;5008449;28;20544;-72
2022/05/23 06:51:17;;;;;;;2.97;2.35;;;;;;;;;;4989124;28;20044;-76
2022/05/23 06:53:42;;;;;;;2.35;1.98;;;;;;;;;;5001852;28;20560;-77
2022/05/23 06:56:08;;;;;;;3.47;1.73;;;;;;;;;;5009098;28;20491;-74
2022/05/23 06:58:33;;;;;;;2.35;1.90;;;;;;;;;;4998124;28;20021;-71
2022/05/23 07:00:59;;;;;;;1.90;1.77;;;;;;;;;;5003823;28;20025;-73
2022/05/23 07:03:24;;;;;;;1.80;1.70;;;;;;;;;;5016073;28;20041;-71
2022/05/23 07:14:01;;;;;;;1.88;1.73;;;;;;;;;;5003680;28;20099;-74
2022/05/23 07:16:28;;;;;;;3.13;2.00;;;;;;;;;;5014858;28;20033;-73
2022/05/23 07:18:54;;;;;;;3.97;1.80;;;;;;;;;;5015407;28;20072;-71
2022/05/23 07:21:19;;;;;;;1.80;1.65;;;;;;;;;;5002692;28;20061;-71
2022/05/23 07:23:46;;;;;;;1.98;1.75;;;;;;;;;;5008778;28;20025;-71
2022/05/23 07:26:16;;;;;;;2.03;1.45;;;;;;;;;;5016181;28;20047;-77
2022/05/23 07:28:43;;;;;;;1.83;1.50;;;;;;;;;;5011194;28;20029;-79
2022/05/23 07:31:09;;;;;;;2.45;1.52;;;;;;;;;;5012190;28;20025;-72
2022/05/23 07:33:34;;;;;;;1.77;1.30;;;;;;;;;;5006313;28;20030;-74
2022/05/23 07:36:00;;;;;;;2.08;1.27;;;;;;;;;;5004634;28;20029;-72
2022/05/23 07:38:27;;;;;;;1.73;1.20;;;;;;;;;;5009516;28;20429;-75
2022/05/23 07:40:53;;;;;;;1.30;1.20;;;;;;;;;;5006607;28;20824;-72
2022/05/23 07:43:18;;;;;;;2.50;1.30;;;;;;;;;;5013807;28;20034;-74
2022/05/23 07:45:44;;;;;;;1.05;1.02;;;;;;;;;;5004034;28;20026;-75
2022/05/23 07:48:10;;;;;;;2.00;1.48;;;;;;;;;;5002217;28;20112;-71
2022/05/23 07:50:37;;;;;;;2.03;1.48;;;;;;;;;;5002838;28;20061;-77
2022/05/23 08:01:14;;;;;;;1.80;1.55;;;;;;;;;;5009584;28;20040;-72
2022/05/23 08:03:40;;;;;;;3.08;1.40;;;;;;;;;;4997213;28;20341;-71
2022/05/23 08:06:05;;;;;;;2.35;1.40;;;;;;;;;;4992681;28;20091;-78
2022/05/23 08:08:31;;;;;;;1.50;1.40;;;;;;;;;;4989359;28;20452;-80
2022/05/23 08:10:57;;;;;;;3.10;1.90;;;;;;;;;;4990269;28;20025;-74
2022/05/23 08:13:23;;;;;;;4.15;1.30;;;;;;;;;;4993228;28;20037;-72
2022/05/23 08:15:48;;;;;;;1.45;0.80;;;;;;;;;;4991036;28;20025;-73
2022/05/23 08:18:16;;;;;;;1.45;1.00;;;;;;;;;;4988903;28;20444;-70
2022/05/23 08:20:41;;;;;;;10.85;1.00;;;;;;;;;;4997663;28;20453;-76
2022/05/23 08:23:06;;;;;;;3.38;1.15;;;;;;;;;;4988102;28;20048;-72
2022/05/23 08:25:32;;;;;;;1.10;1.00;;;;;;;;;;4973838;28;20037;-70
2022/05/23 08:27:57;;;;;;;1.65;1.20;;;;;;;;;;4993290;28;20038;-77
2022/05/23 08:30:23;;;;;;;1.95;0.98;;;;;;;;;;4994668;28;20069;-71
2022/05/23 08:32:49;;;;;;;0.93;0.93;;;;;;;;;;4990075;28;20038;-70
2022/05/23 08:35:15;;;;;;;2.40;1.10;;;;;;;;;;5000627;28;20032;-77
2022/05/23 08:37:41;;;;;;;1.00;0.90;;;;;;;;;;5004160;28;20033;-77
2022/05/23 08:40:08;;;;;;;1.27;1.17;;;;;;;;;;5001927;28;20036;-73
2022/05/23 08:42:56;;;;;;;2.83;1.20;;;;;;;;;;5007956;28;20017;-73
2022/05/23 08:45:27;;;;;;;1.63;1.10;;;;;;;;;;4993253;28;20092;-74
2022/05/23 08:48:12;;;;;;;2.03;1.20;;;;;;;;;;5010809;28;20033;-72
2022/05/23 08:50:37;;;;;;;1.70;1.17;;;;;;;;;;5021011;28;20460;-76
2022/05/23 08:53:06;;;;;;;0.83;0.83;;;;;;;;;;5016989;28;20054;-74
2022/05/23 08:55:34;;;;;;;1.25;0.90;;;;;;;;;;5019507;28;20293;-72
2022/05/23 08:58:00;;;;;;;1.17;1.05;;;;;;;;;;5017462;28;20360;-76
2022/05/23 09:00:39;;;;;;;1.70;1.60;;;;;;;;;;5019459;28;20061;-72
2022/05/23 09:03:08;;;;;;;2.75;2.10;;;;;;;;;;5008275;28;20021;-76
2022/05/23 09:05:38;;;;;;;2.20;1.70;;;;;;;;;;5018702;28;20121;-76
2022/05/23 09:08:05;;;;;;;1.20;1.00;;;;;;;;;;5018371;28;20037;-77
2022/05/23 09:10:34;;;;;;;1.13;1.02;;;;;;;;;;5014098;28;20029;-77
2022/05/23 09:13:00;;;;;;;0.93;0.93;;;;;;;;;;5020669;28;20034;-78
2022/05/23 09:15:25;;;;;;;1.20;1.10;;;;;;;;;;4994259;28;20368;-79
2022/05/23 09:17:59;;;;;;;1.23;1.13;;;;;;;;;;4998255;28;20033;-77
2022/05/23 09:20:44;;;;;;;1.13;1.02;;;;;;;;;;5003339;28;20176;-78
2022/05/23 09:23:18;;;;;;;1.52;1.02;;;;;;;;;;4996827;28;20635;-77
2022/05/23 09:25:43;;;;;;;2.08;1.20;;;;;;;;;;5004997;28;20014;-78
2022/05/23 09:28:08;;;;;;;1.77;1.10;;;;;;;;;;5003561;28;20103;-78
2022/05/23 09:30:35;;;;;;;2.80;1.30;;;;;;;;;;5005879;28;20018;-78
2022/05/23 09:33:00;;;;;;;3.90;1.08;;;;;;;;;;5008574;28;20164;-76
2022/05/23 09:35:27;;;;;;;1.50;1.40;;;;;;;;;;4988457;28;20125;-76
2022/05/23 09:38:05;;;;;;;2.05;1.02;;;;;;;;;;4995824;28;20038;-76
2022/05/23 09:40:31;;;;;;;1.90;1.13;;;;;;;;;;5017164;28;20029;-75
2022/05/23 09:49:10;;;;;;;1.77;0.90;;;;;;;;;;5003085;28;20043;-73
2022/05/23 09:51:48;;;;;;;1.17;1.05;;;;;;;;;;5004458;28;20033;-75
2022/05/23 09:54:17;;;;;;;2.25;1.17;;;;;;;;;;5003684;28;20073;-71
2022/05/23 09:56:44;;;;;;;4.28;1.20;;;;;;;;;;5003460;28;20025;-71
2022/05/23 09:59:20;;;;;;;1.20;1.10;;;;;;;;;;5006674;28;20033;-73
2022/05/23 10:01:46;;;;;;;1.08;1.00;;;;;;;;;;5017605;28;20076;-72
2022/05/23 10:04:16;;;;;;;2.67;1.20;;;;;;;;;;5008160;28;20077;-72
2022/05/23 10:06:46;;;;;;;1.20;1.05;;;;;;;;;;5004036;28;20022;-75
2022/05/23 10:09:22;;;;;;;1.60;1.05;;;;;;;;;;5011347;28;20731;-70
2022/05/23 10:11:53;;;;;;;1.25;1.15;;;;;;;;;;5017506;28;20024;-71
2022/05/23 10:14:19;;;;;;;1.08;0.98;;;;;;;;;;4994239;28;20449;-73
2022/05/23 10:16:52;;;;;;;1.95;1.13;;;;;;;;;;5004811;28;20033;-76
2022/05/23 10:19:43;;;;;;;1.20;1.10;;;;;;;;;;5006971;28;20345;-72
2022/05/23 10:22:11;;;;;;;1.38;0.98;;;;;;;;;;5004830;28;20042;-72
2022/05/23 10:24:39;;;;;;;0.93;0.85;;;;;;;;;;5003599;28;20116;-72
2022/05/23 10:27:07;;;;;;;1.90;1.25;;;;;;;;;;5003036;28;20398;-74
2022/05/23 10:29:47;;;;;;;1.40;1.00;;;;;;;;;;5003702;28;20037;-72
2022/05/23 10:32:15;;;;;;;1.40;1.08;;;;;;;;;;5002832;28;20021;-78
2022/05/23 10:34:42;;;;;;;2.40;1.00;;;;;;;;;;5002671;28;20129;-75
2022/05/23 10:37:09;;;;;;;1.67;0.95;;;;;;;;;;4995958;28;20094;-74
2022/05/23 10:42:28;;;;;;;3.00;1.20;;;;;;;;;;4983170;28;20040;-74
2022/05/23 10:45:06;;;;;;;1.17;1.08;;;;;;;;;;5000093;28;20373;-76
2022/05/23 10:47:32;;;;;;;1.25;1.00;;;;;;;;;;5016021;28;20041;-75
2022/05/23 10:50:10;;;;;;;1.60;0.93;;;;;;;;;;5013166;28;20076;-74
2022/05/23 10:52:44;;;;;;;2.03;1.17;;;;;;;;;;5002952;28;20037;-72
2022/05/23 10:55:23;;;;;;;1.20;1.10;;;;;;;;;;5006127;28;20043;-74
2022/05/23 10:57:56;;;;;;;3.10;1.42;;;;;;;;;;5004974;28;20108;-73
2022/05/23 11:00:28;;;;;;;1.45;1.02;;;;;;;;;;5007880;28;20073;-78
2022/05/23 11:03:11;;;;;;;1.80;1.10;;;;;;;;;;5016168;28;20381;-74
2022/05/23 11:05:54;;;;;;;1.50;1.40;;;;;;;;;;5015307;28;20078;-76
2022/05/23 11:08:23;;;;;;;1.55;1.13;;;;;;;;;;5008873;28;20041;-72
2022/05/23 11:10:51;;;;;;;1.48;1.38;;;;;;;;;;5002920;28;20026;-74
2022/05/23 11:13:35;;;;;;;1.50;1.40;;;;;;;;;;5007675;28;20038;-73
2022/05/23 11:16:09;;;;;;;1.30;1.20;;;;;;;;;;5002407;28;20030;-75
2022/05/23 11:18:50;;;;;;;2.45;1.20;;;;;;;;;;5014193;28;20104;-76
2022/05/23 11:21:21;;;;;;;2.95;1.90;;;;;;;;;;5014901;28;20025;-76
2022/05/23 11:24:07;;;;;;;3.47;1.17;;;;;;;;;;5009921;28;20469;-77
2022/05/23 11:33:41;;;;;;;2.65;1.25;;;;;;;;;;5002812;28;20116;-73
2022/05/23 11:35:23;;;;;;;1.23;1.00;;;;;;;;;;5002138;28;20431;-74
2022/05/23 11:37:49;;;;;;;2.22;1.40;;;;;;;;;;5003052;28;20025;-74
2022/05/23 11:40:30;;;;;;;1.30;1.20;;;;;;;;;;5011468;28;20044;-74
2022/05/23 11:42:58;;;;;;;1.60;1.10;;;;;;;;;;5015363;28;20452;-74
2022/05/23 11:48:29;;;;;;;1.30;1.20;;;;;;;;;;5001673;28;20145;-73
2022/05/23 11:50:55;;;;;;;3.33;1.30;;;;;;;;;;5002514;28;20080;-76
2022/05/23 11:53:27;;;;;;;1.45;1.35;;;;;;;;;;5001953;28;20053;-78
2022/05/23 11:55:54;;;;;;;5.95;1.60;;;;;;;;;;5002537;28;20041;-73
2022/05/23 11:58:24;;;;;;;2.22;1.50;;;;;;;;;;5003004;28;20038;-74
2022/05/23 12:01:02;;;;;;;1.30;1.20;;;;;;;;;;5009238;28;20037;-74
2022/05/23 12:03:47;;;;;;;3.03;1.90;;;;;;;;;;5006724;28;20037;-74
2022/05/23 12:06:16;;;;;;;1.65;1.55;;;;;;;;;;5016280;28;20035;-75
2022/05/23 12:08:58;;;;;;;1.42;1.33;;;;;;;;;;5015650;28;20029;-77
2022/05/23 12:11:24;;;;;;;2.15;1.42;;;;;;;;;;4997819;28;20369;-74
2022/05/23 12:13:51;;;;;;;1.50;1.40;;;;;;;;;;5016412;28;20064;-74
2022/05/23 12:16:16;;;;;;;1.83;1.65;;;;;;;;;;5013973;28;20043;-74
2022/05/23 12:18:47;;;;;;;1.77;1.40;;;;;;;;;;5016980;28;20441;-75
2022/05/23 12:21:31;;;;;;;2.03;1.33;;;;;;;;;;5013948;28;20256;-79
2022/05/23 12:24:29;;;;;;;1.98;1.33;;;;;;;;;;5001841;28;20025;-74
2022/05/23 12:26:56;;;;;;;1.13;1.13;;;;;;;;;;4952506;28;20041;-74
2022/05/23 12:29:26;;;;;;;3.40;1.45;;;;;;;;;;5002902;28;20065;-74
2022/05/23 12:32:10;;;;;;;1.90;1.20;;;;;;;;;;5001597;28;20076;-74
2022/05/23 12:34:40;;;;;;;1.48;1.15;;;;;;;;;;5002055;28;20033;-75
2022/05/23 12:37:06;;;;;;;1.17;1.05;;;;;;;;;;5003179;28;20033;-75
2022/05/23 12:39:50;;;;;;;1.80;1.15;;;;;;;;;;5002317;28;20034;-74
2022/05/23 12:42:16;;;;;;;1.17;1.08;;;;;;;;;;5001443;28;20204;-75
2022/05/23 12:45:00;;;;;;;1.23;1.05;;;;;;;;;;5002538;28;20440;-73
2022/05/23 12:47:26;;;;;;;1.08;1.00;;;;;;;;;;5014721;28;20040;-77
2022/05/23 12:50:11;;;;;;;1.73;0.90;;;;;;;;;;4999245;28;20430;-75
2022/05/23 12:53:05;;;;;;;1.88;1.20;;;;;;;;;;5014479;28;20025;-74
2022/05/23 12:55:30;;;;;;;1.25;1.15;;;;;;;;;;5014315;28;20064;-74
2022/05/23 12:57:58;;;;;;;1.30;1.20;;;;;;;;;;5014882;28;20061;-73
2022/05/23 13:00:28;;;;;;;1.93;1.20;;;;;;;;;;5010194;28;20306;-74
2022/05/23 13:03:02;;;;;;;1.83;1.40;;;;;;;;;;5009799;28;20254;-74
2022/05/23 13:05:47;;;;;;;1.40;1.30;;;;;;;;;;5005892;28;20034;-77
2022/05/23 13:08:19;;;;;;;1.33;1.23;;;;;;;;;;5003384;28;20042;-74
2022/05/23 13:10:47;;;;;;;1.35;1.25;;;;;;;;;;5002233;28;20022;-74
2022/05/23 13:13:19;;;;;;;2.38;1.63;;;;;;;;;;5001503;28;20092;-74
2022/05/23 13:15:44;;;;;;;2.28;1.40;;;;;;;;;;5006014;28;20045;-75
2022/05/23 13:23:39;;;;;;;2.10;1.40;;;;;;;;;;5000647;28;20036;-74
2022/05/23 13:26:07;;;;;;;2.15;1.30;;;;;;;;;;5005346;28;20113;-77
2022/05/23 13:28:37;;;;;;;3.33;1.30;;;;;;;;;;5001627;28;20114;-71
2022/05/23 13:31:04;;;;;;;1.02;1.00;;;;;;;;;;5004135;28;20065;-71
2022/05/23 13:33:31;;;;;;;2.42;1.67;;;;;;;;;;5004803;28;20029;-73
2022/05/23 13:36:00;;;;;;;1.63;1.52;;;;;;;;;;4999302;28;20100;-76
2022/05/23 13:38:29;;;;;;;1.40;1.30;;;;;;;;;;5000449;28;20034;-73
2022/05/23 13:40:56;;;;;;;2.55;1.20;;;;;;;;;;5004295;28;20018;-72
2022/05/23 13:43:21;;;;;;;1.42;1.33;;;;;;;;;;5012416;28;20032;-73
2022/05/23 13:46:01;;;;;;;3.30;1.85;;;;;;;;;;5005044;28;21159;-75
2022/05/23 13:48:31;;;;;;;3.00;1.60;;;;;;;;;;4993836;28;20121;-72
2022/05/23 13:51:01;;;;;;;1.55;1.30;;;;;;;;;;5007548;28;20435;-73
2022/05/23 13:53:47;;;;;;;1.45;1.25;;;;;;;;;;5017187;28;20069;-73
2022/05/23 13:56:13;;;;;;;2.17;1.50;;;;;;;;;;5015802;28;20037;-74
2022/05/23 13:58:50;;;;;;;1.40;1.30;;;;;;;;;;4992847;28;20068;-72
2022/05/23 14:01:21;;;;;;;2.88;1.38;;;;;;;;;;4999062;28;20030;-74
2022/05/23 14:03:49;;;;;;;1.20;1.10;;;;;;;;;;4991602;28;20150;-75
2022/05/23 14:06:18;;;;;;;1.67;1.30;;;;;;;;;;4989863;28;20036;-72
2022/05/23 14:08:45;;;;;;;1.48;1.38;;;;;;;;;;4990704;28;20041;-74
2022/05/23 14:11:20;;;;;;;2.75;1.65;;;;;;;;;;4988554;28;20466;-73
2022/05/23 14:13:46;;;;;;;2.00;1.60;;;;;;;;;;4990294;28;20108;-75
2022/05/23 14:16:14;;;;;;;1.42;1.33;;;;;;;;;;4995228;28;20486;-71
2022/05/23 14:18:40;;;;;;;2.07;1.30;;;;;;;;;;5003655;28;20468;-73
2022/05/23 14:21:25;;;;;;;3.05;1.40;;;;;;;;;;5002772;28;20064;-72
2022/05/23 14:23:54;;;;;;;2.05;1.27;;;;;;;;;;5004397;28;20029;-76
2022/05/23 14:26:19;;;;;;;1.30;1.20;;;;;;;;;;5015146;28;20026;-74
2022/05/23 14:28:47;;;;;;;1.77;1.67;;;;;;;;;;5010049;28;20601;-71
2022/05/23 14:31:12;;;;;;;2.35;1.40;;;;;;;;;;5006860;28;20068;-73
2022/05/23 14:33:47;;;;;;;2.95;1.55;;;;;;;;;;4986513;28;20045;-78
2022/05/23 14:36:20;;;;;;;2.33;1.65;;;;;;;;;;4988453;28;20033;-75
2022/05/23 14:39:02;;;;;;;2.50;1.45;;;;;;;;;;4988323;28;20036;-72
2022/05/23 14:41:35;;;;;;;1.60;1.50;;;;;;;;;;4993915;28;20475;-75
2022/05/23 14:44:17;;;;;;;1.60;1.40;;;;;;;;;;5005370;28;20033;-75
2022/05/23 14:46:59;;;;;;;1.83;1.58;;;;;;;;;;5007272;28;20068;-74
2022/05/23 14:49:27;;;;;;;2.38;1.27;;;;;;;;;;5004238;28;20328;-75
2022/05/23 14:51:53;;;;;;;2.28;1.52;;;;;;;;;;4987548;28;20029;-73
2022/05/23 14:57:06;;;;;;;2.45;1.50;;;;;;;;;;4966125;28;20517;-75
2022/05/23 15:02:41;;;;;;;2.35;1.52;;;;;;;;;;4972354;28;20041;-73
2022/05/23 15:05:08;;;;;;;2.40;1.50;;;;;;;;;;4972141;28;20117;-75
2022/05/23 15:07:33;;;;;;;1.60;1.50;;;;;;;;;;4972317;28;20038;-74
2022/05/23 15:09:58;;;;;;;1.58;1.48;;;;;;;;;;4974320;28;20027;-73
2022/05/23 15:12:25;;;;;;;2.65;1.35;;;;;;;;;;4971834;28;20027;-73
2022/05/23 15:14:51;;;;;;;2.33;1.58;;;;;;;;;;4971289;28;20026;-74
2022/05/23 15:17:18;;;;;;;1.77;1.30;;;;;;;;;;4971533;28;20031;-75
2022/05/23 15:19:44;;;;;;;1.88;1.42;;;;;;;;;;4966051;28;20039;-73
2022/05/23 15:22:13;;;;;;;1.92;1.42;;;;;;;;;;4963889;28;20343;-73
2022/05/23 15:24:38;;;;;;;;;;;;;;;;;;4971569;28;20031;-74
2022/05/23 15:27:05;;;;;;;1.97;1.30;;;;;;;;;;4973595;28;20000;-74
2022/05/23 15:29:32;;;;;;;1.67;1.50;;;;;;;;;;4971579;28;20050;-73
2022/05/23 15:31:59;;;;;;;2.38;1.52;;;;;;;;;;4970633;28;20026;-74
2022/05/23 15:34:25;;;;;;;2.47;1.58;;;;;;;;;;4958569;28;20054;-74
2022/05/23 15:36:50;;;;;;;1.20;1.20;;;;;;;;;;4955728;28;20073;-74
2022/05/23 15:39:16;;;;;;;1.70;1.23;;;;;;;;;;4963872;28;20035;-73
2022/05/23 15:41:42;;;;;;;3.03;1.40;;;;;;;;;;4963725;28;20037;-76
2022/05/23 15:44:10;;;;;;;1.50;1.40;;;;;;;;;;4965962;28;20034;-77
2022/05/23 15:46:36;;;;;;;2.33;1.30;;;;;;;;;;4965527;28;20038;-74
2022/05/23 15:49:01;;;;;;;1.40;1.30;;;;;;;;;;4964620;28;20081;-73
2022/05/23 15:51:26;;;;;;;1.38;1.27;;;;;;;;;;4964694;28;20045;-74
2022/05/23 15:53:52;;;;;;;1.77;1.27;;;;;;;;;;4973292;28;20058;-78
2022/05/23 15:56:18;;;;;;;1.45;1.30;;;;;;;;;;4990062;28;20036;-73
2022/05/23 15:58:43;;;;;;;1.60;1.50;;;;;;;;;;4988502;28;20495;-73